Time;durP1;ratioP1;P1;durP2;ratioP2;P2;SDS_P1;SDS_P2;PMS_P1;PMS_P2;Temp;Humidity;BMP_temperature;BMP_pressure;BME280_temperature;BME280_humidity;BME280_pressure;Samples;Min_cycle;Max_cycle;Signal;HPM_P1;HPM_P2
2022/12/20 00:00:44;;;;;;;53.08;22.30;;;;;;;-2.78;100.00;100231.38;5051356;28;20567;-65
2022/12/20 00:03:29;;;;;;;46.45;20.30;;;;;;;-2.82;100.00;100214.22;5046265;28;20384;-64
2022/12/20 00:06:13;;;;;;;48.40;21.85;;;;;;;-2.82;100.00;100198.84;5050908;28;20041;-65
2022/12/20 00:09:01;;;;;;;55.03;22.90;;;;;;;-2.73;100.00;100197.22;5050816;28;20060;-64
2022/12/20 00:11:45;;;;;;;46.10;21.00;;;;;;;-2.69;100.00;100176.72;5051578;28;20045;-64
2022/12/20 00:14:30;;;;;;;52.53;20.77;;;;;;;-2.72;100.00;100180.97;5051773;28;20041;-63
2022/12/20 00:17:15;;;;;;;51.53;20.80;;;;;;;-2.74;100.00;100186.91;5051327;28;20152;-63
2022/12/20 00:19:59;;;;;;;49.42;21.08;;;;;;;-2.73;100.00;100183.53;5047019;28;20041;-63
2022/12/20 00:22:44;;;;;;;46.95;20.15;;;;;;;-2.86;100.00;100193.66;5047613;28;20473;-63
2022/12/20 00:25:29;;;;;;;52.03;22.10;;;;;;;-2.76;100.00;100178.38;5042975;28;20131;-63
2022/12/20 00:28:14;;;;;;;53.63;21.77;;;;;;;-2.75;100.00;100201.47;5043089;28;20041;-64
2022/12/20 00:30:58;;;;;;;48.45;21.95;;;;;;;-2.80;100.00;100205.69;5050124;28;20064;-63
2022/12/20 00:33:48;;;;;;;50.30;22.98;;;;;;;-2.81;100.00;100198.84;5051359;28;20103;-65
2022/12/20 00:36:32;;;;;;;49.58;21.27;;;;;;;-2.74;100.00;100200.63;5044184;28;20080;-63
2022/12/20 00:39:17;;;;;;;54.13;22.13;;;;;;;-2.76;100.00;100198.91;5049169;28;20049;-64
2022/12/20 00:42:02;;;;;;;59.67;22.90;;;;;;;-2.76;100.00;100202.28;5050179;28;20043;-64
2022/12/20 00:44:47;;;;;;;54.00;21.38;;;;;;;-2.67;100.00;100183.56;5051108;28;20083;-63
2022/12/20 00:47:32;;;;;;;52.92;22.40;;;;;;;-2.63;100.00;100197.31;5049156;28;20041;-63
2022/12/20 00:50:17;;;;;;;53.58;21.77;;;;;;;-2.65;100.00;100181.88;5050771;28;20072;-64
2022/12/20 00:53:01;;;;;;;58.03;23.00;;;;;;;-2.69;100.00;100175.00;5050487;28;20060;-63
2022/12/20 00:55:46;;;;;;;58.20;23.38;;;;;;;-2.81;100.00;100170.63;5048805;28;20076;-63
2022/12/20 00:58:36;;;;;;;52.80;22.17;;;;;;;-2.82;100.00;100178.31;5050360;28;20151;-63
2022/12/20 01:01:23;;;;;;;54.15;22.92;;;;;;;-2.82;100.00;100202.25;5047625;28;20458;-64
2022/12/20 01:04:08;;;;;;;62.22;26.05;;;;;;;-2.92;100.00;100205.59;5049894;28;20067;-63
2022/12/20 01:06:53;;;;;;;53.50;24.27;;;;;;;-2.90;100.00;100201.31;5050104;28;20584;-64
2022/12/20 01:09:37;;;;;;;56.38;24.52;;;;;;;-2.86;100.00;100188.53;5025640;28;20064;-63
2022/12/20 01:12:22;;;;;;;55.60;21.60;;;;;;;-2.83;100.00;100189.41;5043686;28;20052;-63
2022/12/20 01:15:07;;;;;;;60.20;23.58;;;;;;;-2.81;100.00;100201.41;5048108;28;20047;-63
2022/12/20 01:17:52;;;;;;;58.15;22.33;;;;;;;-2.77;100.00;100186.88;5048842;28;20033;-63
2022/12/20 01:20:37;;;;;;;56.65;21.75;;;;;;;-2.77;100.00;100197.16;5043803;28;20044;-63
2022/12/20 01:23:21;;;;;;;57.20;23.52;;;;;;;-2.84;100.00;100203.97;5039672;28;20472;-63
2022/12/20 01:26:10;;;;;;;54.20;22.20;;;;;;;-2.83;100.00;100197.97;5049835;28;20399;-63
2022/12/20 01:28:58;;;;;;;56.00;22.60;;;;;;;-2.79;100.00;100204.00;5048508;28;20412;-63
2022/12/20 01:31:43;;;;;;;58.72;23.45;;;;;;;-2.75;100.00;100195.47;5047855;28;20044;-63
2022/12/20 01:34:27;;;;;;;59.92;24.60;;;;;;;-2.79;100.00;100194.56;5048796;28;20045;-63
2022/12/20 01:37:12;;;;;;;53.40;21.27;;;;;;;-2.77;100.00;100179.19;5048633;28;20420;-65
2022/12/20 01:39:57;;;;;;;51.75;21.17;;;;;;;-2.77;100.00;100176.63;5039355;28;20080;-63
2022/12/20 01:42:41;;;;;;;62.53;24.42;;;;;;;-2.75;100.00;100169.81;5049348;28;20044;-63
2022/12/20 01:45:29;;;;;;;58.22;23.20;;;;;;;-2.75;100.00;100173.25;5050042;28;20045;-63
2022/12/20 01:48:21;;;;;;;56.83;22.42;;;;;;;-2.80;100.00;100177.47;5049226;28;20102;-63
2022/12/20 01:51:06;;;;;;;53.25;22.67;;;;;;;-2.74;100.00;100180.09;5047660;28;20518;-62
2022/12/20 01:53:56;;;;;;;59.88;24.30;;;;;;;-2.79;100.00;100180.91;5048872;28;20041;-63
2022/12/20 01:56:46;;;;;;;56.55;24.05;;;;;;;-2.69;100.00;100169.03;5049861;28;20400;-64
2022/12/20 01:59:35;;;;;;;56.58;23.38;;;;;;;-2.73;100.00;100143.34;5045565;28;20045;-62
2022/12/20 02:02:20;;;;;;;64.90;31.02;;;;;;;-2.77;100.00;100133.00;5049584;28;20124;-63
2022/12/20 02:05:06;;;;;;;57.25;22.50;;;;;;;-2.80;100.00;100143.25;5038540;28;20049;-63
2022/12/20 02:07:55;;;;;;;59.53;22.88;;;;;;;-2.82;100.00;100132.13;5048618;28;20049;-63
2022/12/20 02:11:01;;;;;;;55.25;24.10;;;;;;;-2.85;100.00;100132.94;5046888;28;20098;-64
2022/12/20 02:14:03;;;;;;;60.75;23.73;;;;;;;-2.73;100.00;100132.22;5045352;28;20045;-63
2022/12/20 02:17:11;;;;;;;57.92;23.58;;;;;;;-2.72;100.00;100137.34;5044320;28;20048;-63
2022/12/20 02:20:37;;;;;;;60.80;23.30;;;;;;;-2.63;100.00;100130.56;5045557;28;20049;-64
2022/12/20 02:23:45;;;;;;;59.25;22.33;;;;;;;-2.70;100.00;100128.78;5024183;28;20128;-63
2022/12/20 02:26:29;;;;;;;53.80;22.45;;;;;;;-2.74;100.00;100127.91;5011441;28;20054;-64
2022/12/20 02:29:23;;;;;;;57.97;22.83;;;;;;;-2.67;100.00;100121.97;5011895;28;20552;-65
2022/12/20 02:32:07;;;;;;;56.15;23.13;;;;;;;-2.46;100.00;100128.13;5025852;28;20060;-64
2022/12/20 02:34:53;;;;;;;54.92;21.35;;;;;;;-2.48;100.00;100127.25;5025701;28;20103;-64
2022/12/20 02:37:47;;;;;;;59.60;24.67;;;;;;;-2.53;100.00;100134.06;5025167;28;20088;-65
2022/12/20 02:40:38;;;;;;;63.40;23.88;;;;;;;-2.62;100.00;100135.72;5025488;28;20055;-65
2022/12/20 02:46:30;;;;;;;59.10;23.85;;;;;;;-2.69;100.00;100110.00;5011908;28;20049;-64
2022/12/20 02:49:18;;;;;;;57.33;23.35;;;;;;;-2.65;100.00;100115.16;5026279;28;20049;-64
2022/12/20 02:52:03;;;;;;;59.80;23.55;;;;;;;-2.60;100.00;100118.63;5024924;28;20056;-63
2022/12/20 02:54:47;;;;;;;64.15;30.35;;;;;;;-2.68;100.00;100139.94;5010827;28;20148;-63
2022/12/20 02:57:49;;;;;;;68.97;22.90;;;;;;;-2.58;100.00;100130.59;5013189;28;20049;-63
2022/12/20 03:00:39;;;;;;;57.47;23.17;;;;;;;-2.47;100.00;100121.28;5053061;28;20510;-63
2022/12/20 03:03:24;;;;;;;50.63;23.00;;;;;;;-2.51;100.00;100110.13;5034604;28;20677;-63
2022/12/20 03:06:09;;;;;;;59.88;23.80;;;;;;;-2.49;100.00;100097.28;5045609;28;20041;-63
2022/12/20 03:08:54;;;;;;;59.83;24.30;;;;;;;-2.50;100.00;100100.72;5044469;28;20123;-63
2022/12/20 03:11:43;;;;;;;66.05;24.45;;;;;;;-2.52;100.00;100097.28;5042826;28;20136;-63
2022/12/20 03:14:28;;;;;;;55.08;23.02;;;;;;;-2.60;100.00;100103.22;5044393;28;20067;-63
2022/12/20 03:17:14;;;;;;;64.68;24.35;;;;;;;-2.55;100.00;100110.09;5048383;28;20057;-63
2022/12/20 03:20:00;;;;;;;59.72;24.25;;;;;;;-2.61;100.00;100091.22;5048332;28;20052;-63
2022/12/20 03:22:44;;;;;;;60.35;24.58;;;;;;;-2.65;100.00;100092.06;5049210;28;20044;-63
2022/12/20 03:25:29;;;;;;;62.13;23.30;;;;;;;-2.63;100.00;100107.47;5035574;28;20041;-63
2022/12/20 03:28:16;;;;;;;59.75;24.55;;;;;;;-2.70;100.00;100104.00;5048329;28;20080;-63
2022/12/20 03:31:00;;;;;;;60.20;24.05;;;;;;;-2.64;100.00;100088.63;5049602;28;20116;-63
2022/12/20 03:33:46;;;;;;;62.83;25.65;;;;;;;-2.63;100.00;100102.34;5047634;28;20498;-63
2022/12/20 03:36:32;;;;;;;65.47;29.00;;;;;;;-2.60;100.00;100079.25;5046452;28;20509;-63
2022/12/20 03:39:20;;;;;;;58.67;24.00;;;;;;;-2.68;100.00;100096.31;5049023;28;20114;-64
2022/12/20 03:42:08;;;;;;;72.15;25.63;;;;;;;-2.72;100.00;100078.31;5049847;28;20067;-63
2022/12/20 03:44:53;;;;;;;57.80;23.08;;;;;;;-2.56;100.00;100068.16;5048505;28;20583;-63
2022/12/20 03:47:38;;;;;;;65.40;25.25;;;;;;;-2.44;100.00;100069.06;5047255;28;20044;-63
2022/12/20 03:50:22;;;;;;;54.35;22.23;;;;;;;-2.56;100.00;100090.41;5049066;28;20049;-63
2022/12/20 03:53:08;;;;;;;66.03;30.30;;;;;;;-2.60;100.00;100086.97;5049557;28;20487;-64
2022/12/20 03:55:53;;;;;;;61.35;25.40;;;;;;;-2.57;100.00;100081.84;5046347;28;20199;-64
2022/12/20 03:58:39;;;;;;;68.97;31.20;;;;;;;-2.69;100.00;100074.91;5049274;28;20045;-64
2022/12/20 04:01:27;;;;;;;55.38;24.77;;;;;;;-2.61;100.00;100088.66;5047359;28;20053;-64
2022/12/20 04:04:14;;;;;;;64.43;23.92;;;;;;;-2.45;100.00;100068.25;5045711;28;20094;-64
2022/12/20 04:06:59;;;;;;;70.47;26.58;;;;;;;-2.45;100.00;100091.34;5048527;28;20048;-64
2022/12/20 04:09:44;;;;;;;60.95;24.92;;;;;;;-2.57;100.00;100076.72;5047489;28;20067;-64
2022/12/20 04:12:31;;;;;;;62.40;25.00;;;;;;;-2.52;100.00;100081.88;5048515;28;20794;-63
2022/12/20 04:15:16;;;;;;;66.93;25.75;;;;;;;-2.65;100.00;100071.53;5050495;28;20444;-63
2022/12/20 04:18:02;;;;;;;69.22;26.13;;;;;;;-2.53;100.00;100065.59;5047985;28;20087;-63
2022/12/20 04:20:52;;;;;;;58.17;23.65;;;;;;;-2.39;100.00;100063.13;5049409;28;20045;-63
2022/12/20 04:23:42;;;;;;;65.68;26.50;;;;;;;-2.46;100.00;100065.66;5045763;28;20060;-63
2022/12/20 04:26:27;;;;;;;63.80;24.73;;;;;;;-2.54;100.00;100078.44;5050432;28;20041;-63
2022/12/20 04:29:15;;;;;;;63.85;24.98;;;;;;;-2.39;100.00;100075.09;5050060;28;20049;-64
2022/12/20 04:32:01;;;;;;;63.40;24.13;;;;;;;-2.56;100.00;100093.81;5047267;28;20492;-63
2022/12/20 04:34:46;;;;;;;64.40;25.55;;;;;;;-2.41;100.00;100085.38;5046374;28;20045;-63
2022/12/20 04:37:31;;;;;;;60.28;23.02;;;;;;;-2.44;100.00;100079.34;5045605;28;20127;-63
2022/12/20 04:40:15;;;;;;;66.35;29.40;;;;;;;-2.42;100.00;100063.13;5033701;28;20041;-64
2022/12/20 04:43:06;;;;;;;65.57;25.20;;;;;;;-2.49;100.00;100069.06;5050148;28;20049;-64
2022/12/20 04:45:55;;;;;;;70.68;23.13;;;;;;;-2.58;100.00;100075.00;5049806;28;20500;-64
2022/12/20 04:48:41;;;;;;;65.97;25.83;;;;;;;-2.54;100.00;100073.28;5044540;28;20116;-64
2022/12/20 04:51:26;;;;;;;68.85;25.90;;;;;;;-2.48;100.00;100084.47;5050487;28;20068;-63
2022/12/20 04:54:11;;;;;;;76.07;30.63;;;;;;;-2.48;100.00;100058.78;5048978;28;20175;-65
2022/12/20 04:57:04;;;;;;;62.58;24.73;;;;;;;-2.51;100.00;100055.34;5049752;28;20454;-63
2022/12/20 04:59:49;;;;;;;76.70;24.73;;;;;;;-2.40;100.00;100053.69;5050243;28;20045;-63
2022/12/20 05:02:33;;;;;;;72.00;28.35;;;;;;;-2.46;100.00;100056.22;5044290;28;20063;-63
2022/12/20 05:05:24;;;;;;;97.82;27.65;;;;;;;-2.45;100.00;100055.41;5049355;28;20166;-63
2022/12/20 05:08:11;;;;;;;75.10;25.42;;;;;;;-2.48;100.00;100047.69;5049627;28;20049;-62
2022/12/20 05:10:56;;;;;;;70.00;22.77;;;;;;;-2.23;100.00;100040.09;5049810;28;20404;-64
2022/12/20 05:13:40;;;;;;;65.80;24.38;;;;;;;-2.18;100.00;100050.38;5042036;28;20099;-63
2022/12/20 05:16:26;;;;;;;68.30;23.63;;;;;;;-2.19;100.00;100059.81;5044817;28;20036;-62
2022/12/20 05:19:11;;;;;;;67.13;27.58;;;;;;;-2.13;100.00;100044.44;5047815;28;20428;-62
2022/12/20 05:28:21;;;;;;;68.68;23.75;;;;;;;-2.49;100.00;100044.25;5048308;28;20041;-62
2022/12/20 05:31:06;;;;;;;93.60;28.70;;;;;;;-2.43;100.00;100043.41;5040836;28;20086;-62
2022/12/20 05:33:53;;;;;;;79.32;28.83;;;;;;;-2.51;100.00;100034.81;5045059;28;20053;-62
2022/12/20 05:36:38;;;;;;;89.43;29.20;;;;;;;-2.62;100.00;100043.31;5043599;28;20071;-63
2022/12/20 05:39:26;;;;;;;89.22;29.15;;;;;;;-2.64;100.00;100062.09;5047832;28;20056;-63
2022/12/20 05:42:14;;;;;;;80.95;29.52;;;;;;;-2.66;100.00;100059.53;5040786;28;20041;-62
2022/12/20 05:45:02;;;;;;;69.63;24.73;;;;;;;-2.67;100.00;100049.25;5041462;28;20041;-64
2022/12/20 05:47:50;;;;;;;87.78;29.25;;;;;;;-2.51;100.00;100032.25;5046044;28;20049;-63
2022/12/20 05:50:35;;;;;;;78.72;28.98;;;;;;;-2.48;100.00;100012.59;5052916;28;20055;-62
2022/12/20 05:53:39;;;;;;;104.95;28.88;;;;;;;-2.31;100.00;100014.38;5045814;28;20122;-61
2022/12/20 05:56:25;;;;;;;85.55;27.52;;;;;;;-2.40;100.00;100014.34;5047183;28;20052;-62
2022/12/20 05:59:09;;;;;;;63.83;24.10;;;;;;;-2.26;100.00;100022.97;5047963;28;20072;-62
2022/12/20 06:01:55;;;;;;;83.68;28.13;;;;;;;-2.51;100.00;100033.09;5046924;28;20068;-63
2022/12/20 06:04:41;;;;;;;91.38;25.92;;;;;;;-2.74;100.00;100027.81;5042338;28;20037;-62
2022/12/20 06:07:38;;;;;;;122.43;30.20;;;;;;;-2.80;100.00;100050.88;5039557;28;20110;-62
2022/12/20 06:10:23;;;;;;;119.35;33.10;;;;;;;-2.89;100.00;100049.13;5047086;28;20514;-63
2022/12/20 06:13:15;;;;;;;74.07;24.98;;;;;;;-2.89;100.00;100060.22;5034113;28;20048;-63
2022/12/20 06:15:59;;;;;;;77.35;29.60;;;;;;;-2.76;100.00;100062.91;5046503;28;20086;-63
2022/12/20 06:18:44;;;;;;;68.88;24.40;;;;;;;-2.79;100.00;100037.22;5042506;28;20052;-65
2022/12/20 06:21:30;;;;;;;77.68;29.08;;;;;;;-2.80;100.00;100038.06;5041003;28;20041;-63
2022/12/20 06:24:16;;;;;;;65.97;28.50;;;;;;;-2.63;100.00;100051.00;5035919;28;20124;-64
2022/12/20 06:27:03;;;;;;;66.57;23.55;;;;;;;-2.66;100.00;100041.56;5048114;28;20049;-64
2022/12/20 06:29:50;;;;;;;69.93;29.92;;;;;;;-2.65;100.00;100043.31;5049826;28;20057;-64
2022/12/20 06:32:38;;;;;;;95.13;31.75;;;;;;;-2.66;100.00;100061.25;5037923;28;20056;-64
2022/12/20 06:35:25;;;;;;;70.13;24.05;;;;;;;-2.68;100.00;100061.25;5048501;28;20511;-64
2022/12/20 06:38:12;;;;;;;86.65;25.98;;;;;;;-2.64;100.00;100047.56;5048450;28;20068;-64
2022/12/20 06:40:57;;;;;;;82.28;31.27;;;;;;;-2.57;100.00;100034.78;5048492;28;20045;-64
2022/12/20 06:43:42;;;;;;;66.50;24.75;;;;;;;-2.64;100.00;100037.31;5038146;28;20048;-64
2022/12/20 06:46:28;;;;;;;69.63;25.40;;;;;;;-2.70;100.00;100033.84;5047895;28;20044;-63
2022/12/20 06:49:14;;;;;;;80.88;30.13;;;;;;;-2.72;100.00;100021.88;5048034;28;20131;-64
2022/12/20 06:52:00;;;;;;;69.93;26.20;;;;;;;-2.66;100.00;100015.06;5051557;28;20048;-64
2022/12/20 06:54:55;;;;;;;91.35;30.02;;;;;;;-2.70;100.00;100019.31;5052404;28;20049;-64
2022/12/20 06:57:41;;;;;;;97.68;30.52;;;;;;;-2.82;100.00;100021.81;5037840;28;20048;-64
2022/12/20 07:00:26;;;;;;;87.72;31.27;;;;;;;-2.79;100.00;100017.53;5050021;28;20057;-64
2022/12/20 07:03:12;;;;;;;69.53;25.95;;;;;;;-2.78;100.00;100010.72;5053228;28;20120;-65
2022/12/20 07:05:56;;;;;;;67.90;24.65;;;;;;;-2.73;100.00;100004.78;5051847;28;20060;-64
2022/12/20 07:08:41;;;;;;;77.28;29.98;;;;;;;-2.75;100.00;100013.28;5048315;28;20069;-64
2022/12/20 07:11:26;;;;;;;85.28;30.83;;;;;;;-2.79;100.00;100022.66;5053403;28;20068;-64
2022/12/20 07:14:11;;;;;;;75.45;30.20;;;;;;;-2.67;100.00;100028.72;5050630;28;20037;-64
2022/12/20 07:16:55;;;;;;;75.18;25.67;;;;;;;-2.70;100.00;100021.88;5053007;28;20480;-64
2022/12/20 07:19:41;;;;;;;96.60;30.17;;;;;;;-2.77;100.00;100041.50;5052617;28;20102;-67
2022/12/20 07:22:26;;;;;;;62.08;24.02;;;;;;;-2.66;100.00;100031.31;5052484;28;20507;-65
2022/12/20 07:25:11;;;;;;;65.45;23.63;;;;;;;-2.61;100.00;100032.19;5052990;28;20037;-64
2022/12/20 07:27:58;;;;;;;65.97;25.30;;;;;;;-2.46;100.00;100032.28;5048867;28;20191;-64
2022/12/20 07:30:43;;;;;;;76.28;29.20;;;;;;;-2.52;100.00;100030.53;5052360;28;20638;-64
2022/12/20 07:33:28;;;;;;;68.82;28.20;;;;;;;-2.58;100.00;100028.81;5051334;28;20045;-64
2022/12/20 07:36:17;;;;;;;71.63;29.73;;;;;;;-2.64;100.00;100027.06;5050768;28;20056;-65
2022/12/20 07:39:02;;;;;;;72.22;27.40;;;;;;;-2.75;100.00;100014.16;5051325;28;20041;-63
2022/12/20 07:41:47;;;;;;;62.03;23.58;;;;;;;-2.62;100.00;100009.09;5051293;28;20171;-64
2022/12/20 07:44:40;;;;;;;65.93;25.05;;;;;;;-2.73;100.00;100027.00;5039893;28;20048;-63
2022/12/20 07:47:25;;;;;;;62.22;23.13;;;;;;;-2.61;100.00;100014.22;5041521;28;20530;-63
2022/12/20 07:50:11;;;;;;;54.63;21.73;;;;;;;-2.68;100.00;100016.75;5052178;28;20055;-63
2022/12/20 07:52:57;;;;;;;69.15;28.92;;;;;;;-2.66;100.00;100009.94;5052548;28;20040;-63
2022/12/20 07:55:42;;;;;;;63.03;27.63;;;;;;;-2.77;100.00;100020.97;5041571;28;20041;-63
2022/12/20 07:58:29;;;;;;;59.05;22.80;;;;;;;-2.68;100.00;100009.06;5052276;28;20179;-63
2022/12/20 08:01:13;;;;;;;57.88;22.48;;;;;;;-2.56;100.00;100019.38;5052080;28;20045;-63
2022/12/20 08:04:09;;;;;;;69.35;23.35;;;;;;;-2.61;100.00;100006.53;5036925;28;20043;-64
2022/12/20 08:06:56;;;;;;;62.42;28.15;;;;;;;-2.64;100.00;100010.78;5041669;28;20049;-63
2022/12/20 08:09:43;;;;;;;59.25;26.05;;;;;;;-2.57;100.00;100022.81;5050289;28;20053;-63
2022/12/20 08:12:29;;;;;;;69.82;23.95;;;;;;;-2.71;100.00;100015.06;5046777;28;20045;-64
2022/12/20 08:15:15;;;;;;;65.63;27.35;;;;;;;-2.67;100.00;100019.34;5051839;28;20489;-63
2022/12/20 08:18:00;;;;;;;67.03;27.13;;;;;;;-2.65;100.00;100020.22;5040295;28;20053;-65
2022/12/20 08:20:46;;;;;;;55.75;21.52;;;;;;;-2.58;100.00;100010.84;5047598;28;20032;-64
2022/12/20 08:23:31;;;;;;;63.95;25.58;;;;;;;-2.61;100.00;100003.97;5051916;28;20500;-64
2022/12/20 08:26:16;;;;;;;74.78;27.20;;;;;;;-2.76;100.00;100012.44;5049952;28;20396;-64
2022/12/20 08:29:01;;;;;;;51.88;21.13;;;;;;;-2.79;100.00;100011.56;5052022;28;20083;-65
2022/12/20 08:31:49;;;;;;;61.25;26.65;;;;;;;-2.60;100.00;100026.25;5044397;28;20045;-64
2022/12/20 08:34:33;;;;;;;60.05;22.58;;;;;;;-2.65;100.00;100050.13;5041586;28;20190;-63
2022/12/20 08:37:18;;;;;;;57.42;25.67;;;;;;;-2.65;100.00;100029.59;5051460;28;20434;-63
2022/12/20 08:40:04;;;;;;;49.60;20.05;;;;;;;-2.58;100.00;100022.81;5050525;28;20063;-64
2022/12/20 08:42:48;;;;;;;57.03;25.73;;;;;;;-2.60;100.00;100015.09;5050872;28;20044;-64
2022/12/20 08:45:33;;;;;;;53.95;24.88;;;;;;;-2.64;100.00;100003.94;5038907;28;20037;-64
2022/12/20 08:48:17;;;;;;;55.58;21.63;;;;;;;-2.48;100.00;100009.19;5050759;28;20041;-63
2022/12/20 08:51:06;;;;;;;58.03;21.33;;;;;;;-2.56;100.00;100009.13;5051737;28;20052;-63
2022/12/20 08:53:51;;;;;;;62.45;24.95;;;;;;;-2.62;100.00;99993.69;5050966;28;20059;-63
2022/12/20 08:56:35;;;;;;;54.92;25.23;;;;;;;-2.46;100.00;99993.78;5050651;28;20064;-63
2022/12/20 08:59:20;;;;;;;59.35;22.73;;;;;;;-2.49;100.00;99986.91;5049767;28;20061;-65
2022/12/20 09:02:05;;;;;;;54.83;21.45;;;;;;;-2.46;100.00;99992.06;5051261;28;20049;-63
2022/12/20 09:04:50;;;;;;;61.17;26.70;;;;;;;-2.48;100.00;99991.22;5049838;28;20052;-63
2022/12/20 09:07:35;;;;;;;58.47;22.83;;;;;;;-2.55;100.00;99977.50;5035524;28;20056;-65
2022/12/20 09:10:20;;;;;;;63.08;27.27;;;;;;;-2.62;100.00;99971.47;5051213;28;20140;-63
2022/12/20 09:13:05;;;;;;;68.60;28.05;;;;;;;-2.70;100.00;99967.13;5050422;28;20081;-63
2022/12/20 09:15:49;;;;;;;48.97;21.83;;;;;;;-2.69;100.00;99966.31;5050281;28;20041;-62
2022/12/20 09:18:34;;;;;;;57.85;26.00;;;;;;;-2.58;100.00;99971.47;5050625;28;20521;-63
2022/12/20 09:21:20;;;;;;;63.20;25.13;;;;;;;-2.54;100.00;99980.91;5050650;28;20041;-63
2022/12/20 09:24:06;;;;;;;62.65;28.48;;;;;;;-2.56;100.00;99974.91;5050292;28;20044;-63
2022/12/20 09:26:51;;;;;;;59.50;27.98;;;;;;;-2.64;100.00;99968.03;5049962;28;20144;-62
2022/12/20 09:29:36;;;;;;;57.55;26.52;;;;;;;-2.57;100.00;99960.34;5050531;28;20049;-63
2022/12/20 09:32:20;;;;;;;61.38;28.05;;;;;;;-2.67;100.00;99962.00;5050394;28;20044;-63
2022/12/20 09:35:06;;;;;;;58.20;27.00;;;;;;;-2.72;100.00;99970.56;5048948;28;20145;-62
2022/12/20 09:37:53;;;;;;;54.25;23.00;;;;;;;-2.61;100.00;99973.16;5047284;28;20133;-64
2022/12/20 09:40:43;;;;;;;52.85;21.73;;;;;;;-2.61;100.00;99962.03;5049135;28;20045;-60
2022/12/20 09:43:29;;;;;;;51.40;22.05;;;;;;;-2.43;100.00;99975.84;5047483;28;20208;-62
2022/12/20 09:46:14;;;;;;;60.22;26.77;;;;;;;-2.60;100.00;99968.91;5049676;28;20044;-61
2022/12/20 09:48:59;;;;;;;52.25;23.10;;;;;;;-2.30;100.00;99958.75;5048185;28;20052;-63
2022/12/20 09:52:21;;;;;;;51.83;23.90;;;;;;;-1.75;100.00;99970.03;5048181;28;20870;-62
2022/12/20 09:55:18;;;;;;;53.03;24.10;;;;;;;-1.94;100.00;99964.84;5049301;28;20047;-63
2022/12/20 09:58:08;;;;;;;39.22;21.20;;;;;;;-1.88;100.00;99946.03;5049620;28;20040;-63
2022/12/20 10:00:53;;;;;;;47.72;24.02;;;;;;;-1.67;100.00;99949.47;5048275;28;20708;-63
2022/12/20 10:03:38;;;;;;;49.47;23.08;;;;;;;-1.75;100.00;99950.31;5047782;28;20041;-64
2022/12/20 10:06:38;;;;;;;54.00;26.50;;;;;;;-2.04;100.00;99947.72;5046793;28;20060;-63
2022/12/20 10:10:09;;;;;;;54.13;26.43;;;;;;;-2.16;100.00;99945.97;5047660;28;20131;-64
2022/12/20 10:13:00;;;;;;;55.17;28.65;;;;;;;-1.99;100.00;99935.69;5045437;28;20041;-64
2022/12/20 10:16:32;;;;;;;52.95;29.15;;;;;;;-1.91;100.00;99941.72;5048789;28;20123;-63
2022/12/20 10:19:30;;;;;;;52.78;25.35;;;;;;;-1.39;100.00;99932.31;5046898;28;20081;-61
2022/12/20 10:22:23;;;;;;;40.67;20.77;;;;;;;-1.57;100.00;99930.63;5047720;28;20073;-60
2022/12/20 10:25:29;;;;;;;49.83;23.52;;;;;;;-2.07;100.00;99938.25;5040814;28;20090;-59
2022/12/20 10:28:15;;;;;;;45.85;23.58;;;;;;;-1.92;100.00;99924.59;5039606;28;20451;-60
2022/12/20 10:31:03;;;;;;;48.03;22.88;;;;;;;-2.01;100.00;99927.16;5048264;28;20045;-60
2022/12/20 10:33:48;;;;;;;53.15;23.80;;;;;;;-2.12;100.00;99910.00;5047897;28;20064;-59
2022/12/20 10:36:35;;;;;;;54.88;24.10;;;;;;;-1.73;100.00;99920.31;5048423;28;20037;-61
2022/12/20 10:39:39;;;;;;;55.25;24.30;;;;;;;-1.46;100.00;99914.31;5039224;28;20064;-60
2022/12/20 10:42:54;;;;;;;45.47;22.10;;;;;;;-1.57;100.00;99909.19;5048215;28;20048;-61
2022/12/20 10:45:41;;;;;;;48.85;22.30;;;;;;;-2.02;100.00;99890.34;5026617;28;20061;-62
2022/12/20 10:48:29;;;;;;;46.38;20.95;;;;;;;-1.98;100.00;99888.63;4999896;28;20519;-61
2022/12/20 10:51:17;;;;;;;42.45;21.30;;;;;;;-1.65;100.00;99888.66;5004012;28;20092;-62
2022/12/20 10:54:18;;;;;;;50.35;22.27;;;;;;;-2.07;100.00;99880.91;5010110;28;20144;-63
2022/12/20 10:57:24;;;;;;;51.00;23.65;;;;;;;-2.12;100.00;99870.63;5041123;28;20132;-62
2022/12/20 11:00:28;;;;;;;46.38;23.38;;;;;;;-2.04;100.00;99876.63;5012999;28;20534;-60
2022/12/20 11:03:20;;;;;;;46.42;22.05;;;;;;;-1.79;100.00;99870.63;5041407;28;20120;-61
2022/12/20 11:06:15;;;;;;;50.17;22.60;;;;;;;-1.41;100.00;99885.19;5008816;28;20049;-62
2022/12/20 11:09:26;;;;;;;49.60;22.85;;;;;;;-2.03;100.00;99868.09;5021158;28;20063;-62
2022/12/20 11:12:15;;;;;;;52.00;23.65;;;;;;;-1.93;100.00;99871.50;5024975;28;20050;-61
2022/12/20 11:15:19;;;;;;;47.78;22.10;;;;;;;-1.93;100.00;99853.53;5012106;28;20046;-63
2022/12/20 11:18:38;;;;;;;46.58;22.90;;;;;;;-1.88;100.00;99840.69;5024860;28;20041;-61
2022/12/20 11:21:40;;;;;;;51.65;23.40;;;;;;;-2.14;100.00;99837.22;5020494;28;20068;-62
2022/12/20 11:24:31;;;;;;;;;;;;;;;-2.09;100.00;99833.81;5044221;28;20084;-63
2022/12/20 11:27:34;;;;;;;49.92;22.98;;;;;;;-2.06;100.00;99831.25;5048523;28;20360;-63
2022/12/20 11:30:26;;;;;;;51.15;22.95;;;;;;;-2.08;100.00;99844.09;5044455;28;20037;-62
2022/12/20 11:33:13;;;;;;;55.05;24.65;;;;;;;-2.15;100.00;99832.09;5048745;28;20040;-62
2022/12/20 11:36:02;;;;;;;49.03;23.33;;;;;;;-2.24;100.00;99827.81;5044216;28;20037;-65
2022/12/20 11:39:12;;;;;;;51.55;24.13;;;;;;;-2.34;100.00;99826.94;5052507;28;20052;-64
2022/12/20 11:42:26;;;;;;;46.60;22.85;;;;;;;-2.33;100.00;99814.97;5049123;28;20045;-63
2022/12/20 11:45:14;;;;;;;44.03;21.38;;;;;;;-2.18;100.00;99814.13;5047118;28;20041;-63
2022/12/20 11:48:21;;;;;;;48.15;22.70;;;;;;;-2.27;100.00;99815.81;5045385;28;20037;-63
2022/12/20 11:51:24;;;;;;;45.78;22.83;;;;;;;-2.30;100.00;99804.72;5050052;28;20044;-63
2022/12/20 11:54:37;;;;;;;42.92;21.38;;;;;;;-2.33;100.00;99802.97;5047514;28;20718;-63
2022/12/20 11:57:34;;;;;;;40.15;19.95;;;;;;;-2.51;100.00;99798.66;5077590;28;20041;-65
2022/12/20 12:00:21;;;;;;;46.05;21.42;;;;;;;-2.41;100.00;99791.84;5036002;28;20486;-63
2022/12/20 12:03:18;;;;;;;44.97;20.50;;;;;;;-2.37;100.00;99778.16;5058301;28;20037;-65
2022/12/20 12:06:16;;;;;;;50.28;22.70;;;;;;;-2.27;100.00;99776.47;5052073;28;20140;-63
2022/12/20 12:09:15;;;;;;;43.53;22.17;;;;;;;-2.40;100.00;99779.00;5051769;28;20059;-63
2022/12/20 12:12:13;;;;;;;47.60;22.00;;;;;;;-2.33;100.00;99776.47;5051493;28;20155;-63
2022/12/20 12:15:11;;;;;;;50.92;22.13;;;;;;;-2.51;100.00;99771.31;5052333;28;20073;-64
2022/12/20 12:17:59;;;;;;;53.38;25.13;;;;;;;-2.42;100.00;99755.06;5046737;28;20067;-63
2022/12/20 12:20:47;;;;;;;52.15;22.67;;;;;;;-2.40;100.00;99762.78;5050536;28;20138;-65
2022/12/20 12:23:43;;;;;;;50.80;23.60;;;;;;;-2.41;100.00;99756.78;5051616;28;20144;-64
2022/12/20 12:26:31;;;;;;;45.60;22.20;;;;;;;-2.42;100.00;99749.94;5042674;28;20045;-65
2022/12/20 12:29:18;;;;;;;57.75;26.98;;;;;;;-2.59;100.00;99747.34;5051355;28;20139;-65
2022/12/20 12:32:29;;;;;;;62.65;26.60;;;;;;;-2.50;100.00;99757.59;5050669;28;20049;-64
2022/12/20 12:35:37;;;;;;;46.45;22.25;;;;;;;-2.50;100.00;99736.22;5048240;28;20056;-64
2022/12/20 12:38:47;;;;;;;49.05;23.88;;;;;;;-2.58;100.00;99741.38;5039337;28;20089;-64
2022/12/20 12:41:35;;;;;;;49.30;19.98;;;;;;;-2.40;100.00;99743.06;5039319;28;20071;-64
2022/12/20 12:44:49;;;;;;;47.15;22.02;;;;;;;-2.45;100.00;99731.09;5051438;28;20075;-63
2022/12/20 12:47:48;;;;;;;49.65;23.50;;;;;;;-2.46;100.00;99727.66;5051402;28;20132;-64
2022/12/20 12:50:44;;;;;;;47.85;22.40;;;;;;;-2.65;100.00;99719.97;5036173;28;20079;-64
2022/12/20 12:53:50;;;;;;;46.33;19.00;;;;;;;-2.75;100.00;99720.81;5051735;28;20056;-65